Time;durP1;ratioP1;P1;durP2;ratioP2;P2;SDS_P1;SDS_P2;PMS_P1;PMS_P2;Temp;Humidity;BMP_temperature;BMP_pressure;BME280_temperature;BME280_humidity;BME280_pressure;Samples;Min_cycle;Max_cycle;Signal;HPM_P1;HPM_P2
2022/02/28 00:02:19;;;;;;;19.35;10.40;;;;;;;1.30;100.00;102592.50;5217620;28;20033;-77
2022/02/28 00:04:49;;;;;;;22.30;10.43;;;;;;;1.24;100.00;102590.59;5219994;28;20041;-78
2022/02/28 00:07:20;;;;;;;20.23;10.10;;;;;;;1.18;100.00;102589.50;5216054;28;20055;-77
2022/02/28 00:09:50;;;;;;;19.98;10.35;;;;;;;0.93;100.00;102590.34;5216864;28;20380;-76
2022/02/28 00:12:20;;;;;;;22.23;10.50;;;;;;;0.94;100.00;102588.66;5218729;28;20029;-74
2022/02/28 00:14:51;;;;;;;21.08;10.90;;;;;;;0.90;100.00;102594.53;5220830;28;20033;-77
2022/02/28 00:17:21;;;;;;;24.05;10.98;;;;;;;0.94;100.00;102593.81;5219772;28;20071;-77
2022/02/28 00:19:51;;;;;;;23.70;10.88;;;;;;;0.82;100.00;102594.25;5217509;28;20082;-75
2022/02/28 00:22:22;;;;;;;23.52;11.55;;;;;;;0.98;100.00;102599.13;5222452;28;20423;-77
2022/02/28 00:24:52;;;;;;;23.48;11.50;;;;;;;1.04;100.00;102596.75;5214149;28;20064;-77
2022/02/28 00:27:23;;;;;;;24.23;11.50;;;;;;;0.92;100.00;102598.03;5218256;28;20029;-76
2022/02/28 00:29:53;;;;;;;24.10;11.85;;;;;;;0.91;100.00;102588.56;5217204;28;20056;-76
2022/02/28 00:32:24;;;;;;;25.85;10.98;;;;;;;0.88;100.00;102584.16;5217294;28;20059;-75
2022/02/28 00:34:54;;;;;;;21.33;11.10;;;;;;;0.76;100.00;102590.56;5221678;28;20112;-77
2022/02/28 00:37:24;;;;;;;26.38;11.88;;;;;;;0.80;100.00;102589.84;5221703;28;20037;-77
2022/02/28 00:39:54;;;;;;;24.80;12.18;;;;;;;0.79;100.00;102582.97;5222602;28;20043;-77
2022/02/28 00:42:25;;;;;;;25.40;11.15;;;;;;;0.97;100.00;102581.03;5225042;28;20037;-76
2022/02/28 00:44:55;;;;;;;23.08;11.90;;;;;;;0.95;100.00;102580.13;5222846;28;20340;-75
2022/02/28 00:47:25;;;;;;;24.88;11.80;;;;;;;1.02;100.00;102580.38;5217787;28;20036;-77
2022/02/28 00:49:56;;;;;;;23.67;11.13;;;;;;;0.98;100.00;102573.38;5220824;28;20164;-76
2022/02/28 00:52:26;;;;;;;21.58;12.05;;;;;;;0.93;100.00;102571.47;5224245;28;20033;-75
2022/02/28 00:54:56;;;;;;;25.75;12.48;;;;;;;0.94;100.00;102568.06;5220138;28;20029;-77
2022/02/28 00:57:27;;;;;;;21.95;11.25;;;;;;;1.00;100.00;102569.16;5224551;28;20061;-76
2022/02/28 00:59:57;;;;;;;23.55;11.75;;;;;;;0.97;100.00;102569.06;5218989;28;20021;-77
2022/02/28 01:02:28;;;;;;;24.25;11.75;;;;;;;0.88;100.00;102579.00;5218530;28;20052;-75
2022/02/28 01:04:58;;;;;;;27.02;12.50;;;;;;;0.88;100.00;102568.72;5219153;28;20029;-78
2022/02/28 01:07:28;;;;;;;24.65;12.25;;;;;;;0.91;100.00;102571.41;5221246;28;20079;-76
2022/02/28 01:09:58;;;;;;;26.05;12.75;;;;;;;0.79;100.00;102568.41;5219666;28;20018;-74
2022/02/28 01:12:29;;;;;;;22.05;11.88;;;;;;;0.65;100.00;102567.03;5221308;28;20037;-77
2022/02/28 01:14:59;;;;;;;23.88;12.77;;;;;;;0.69;100.00;102561.19;5219530;28;20671;-75
2022/02/28 01:17:29;;;;;;;23.50;11.95;;;;;;;0.72;100.00;102561.28;5209426;28;20038;-76
2022/02/28 01:20:00;;;;;;;26.00;12.07;;;;;;;0.68;100.00;102558.53;5215748;28;20250;-78
2022/02/28 01:22:30;;;;;;;25.27;12.73;;;;;;;0.63;100.00;102555.81;5214701;28;20367;-77
2022/02/28 01:25:02;;;;;;;25.75;11.68;;;;;;;0.59;100.00;102548.78;5219183;28;20032;-76
2022/02/28 01:27:32;;;;;;;24.58;11.93;;;;;;;0.54;100.00;102555.47;5219891;28;20539;-77
2022/02/28 01:30:04;;;;;;;26.10;11.98;;;;;;;0.51;100.00;102552.81;5215430;28;20106;-76
2022/02/28 01:32:34;;;;;;;27.73;11.80;;;;;;;0.52;100.00;102554.56;5217165;28;20086;-76
2022/02/28 01:35:07;;;;;;;26.35;12.55;;;;;;;0.41;100.00;102553.28;5220396;28;20458;-77
2022/02/28 01:37:39;;;;;;;23.20;11.65;;;;;;;0.45;100.00;102542.31;5218565;28;20033;-75
2022/02/28 01:40:12;;;;;;;28.67;13.00;;;;;;;0.42;100.00;102534.44;5218212;28;20025;-76
2022/02/28 01:42:43;;;;;;;24.35;12.82;;;;;;;0.42;100.00;102539.59;5216911;28;20029;-77
2022/02/28 01:45:16;;;;;;;27.77;12.55;;;;;;;0.38;100.00;102535.16;5218415;28;20067;-77
2022/02/28 01:47:47;;;;;;;26.98;12.48;;;;;;;0.32;100.00;102534.94;5212285;28;20242;-78
2022/02/28 01:50:17;;;;;;;26.88;12.98;;;;;;;0.32;100.00;102527.25;5219160;28;20036;-77
2022/02/28 01:52:48;;;;;;;24.92;12.52;;;;;;;0.40;100.00;102524.94;5215732;28;20088;-76
2022/02/28 01:55:21;;;;;;;30.02;13.13;;;;;;;0.34;100.00;102524.69;5218673;28;20120;-77
2022/02/28 01:57:52;;;;;;;26.67;12.82;;;;;;;0.40;100.00;102524.94;5217626;28;20029;-77
2022/02/28 02:00:27;;;;;;;24.88;12.30;;;;;;;0.43;100.00;102520.81;5212139;28;20549;-77
2022/02/28 02:02:58;;;;;;;26.48;12.68;;;;;;;0.37;100.00;102520.56;5214786;28;20029;-77
2022/02/28 02:05:29;;;;;;;23.48;12.15;;;;;;;0.34;100.00;102523.03;5214874;28;20487;-77
2022/02/28 02:08:04;;;;;;;26.45;12.20;;;;;;;0.31;100.00;102530.63;5217852;28;20104;-77
2022/02/28 02:10:34;;;;;;;25.92;12.48;;;;;;;0.20;100.00;102516.50;5215799;28;20029;-77
2022/02/28 02:13:06;;;;;;;26.20;12.50;;;;;;;0.28;100.00;102519.34;5217096;28;20383;-77
2022/02/28 02:15:36;;;;;;;28.75;13.00;;;;;;;0.08;100.00;102523.75;5212558;28;20029;-78
2022/02/28 02:18:07;;;;;;;27.42;13.10;;;;;;;0.05;100.00;102515.06;5214480;28;20025;-77
2022/02/28 02:20:39;;;;;;;27.02;13.18;;;;;;;0.11;100.00;102521.31;5217518;28;20429;-77
2022/02/28 02:23:11;;;;;;;29.02;14.20;;;;;;;0.12;100.00;102512.78;5214217;28;20063;-76
2022/02/28 02:25:43;;;;;;;24.88;13.23;;;;;;;0.23;100.00;102510.59;5217105;28;20020;-77
2022/02/28 02:28:16;;;;;;;29.30;13.82;;;;;;;0.19;100.00;102509.59;5217947;28;20029;-77
2022/02/28 02:30:51;;;;;;;25.05;12.73;;;;;;;0.14;100.00;102516.28;5214664;28;20044;-77
2022/02/28 02:33:23;;;;;;;25.75;12.55;;;;;;;0.08;100.00;102518.59;5215098;28;20043;-76
2022/02/28 02:35:56;;;;;;;29.98;13.63;;;;;;;0.07;100.00;102524.56;5219419;28;20028;-76
2022/02/28 02:38:31;;;;;;;25.80;13.32;;;;;;;0.17;100.00;102516.38;5214915;28;20033;-76
2022/02/28 02:41:03;;;;;;;25.27;13.13;;;;;;;0.14;100.00;102516.28;5218563;28;20046;-77
2022/02/28 02:43:35;;;;;;;25.70;12.90;;;;;;;0.36;100.00;102512.81;5217166;28;20041;-76
2022/02/28 02:46:05;;;;;;;25.70;13.15;;;;;;;0.43;100.00;102510.50;5215823;28;20036;-77
2022/02/28 02:48:36;;;;;;;27.27;13.20;;;;;;;0.23;100.00;102514.03;5217155;28;20422;-76
2022/02/28 02:51:06;;;;;;;28.17;13.15;;;;;;;0.18;100.00;102513.00;5219644;28;20025;-75
2022/02/28 02:53:36;;;;;;;26.55;12.88;;;;;;;0.08;100.00;102515.16;5218422;28;20548;-76
2022/02/28 02:56:07;;;;;;;28.77;14.13;;;;;;;0.14;100.00;102513.72;5219936;28;20749;-77
2022/02/28 02:58:37;;;;;;;28.15;13.55;;;;;;;0.09;100.00;102507.53;5219188;28;20033;-76
2022/02/28 03:01:07;;;;;;;27.33;13.98;;;;;;;0.17;100.00;102502.63;5215517;28;20036;-77
2022/02/28 03:03:38;;;;;;;28.75;13.65;;;;;;;0.15;100.00;102501.72;5216305;28;20029;-77
2022/02/28 03:06:08;;;;;;;29.50;14.05;;;;;;;0.08;100.00;102504.88;5219112;28;20043;-78
2022/02/28 03:08:38;;;;;;;30.92;14.27;;;;;;;0.10;100.00;102505.81;5218950;28;20021;-76
2022/02/28 03:11:09;;;;;;;29.40;13.90;;;;;;;0.00;100.00;102502.03;5217891;28;20112;-76
2022/02/28 03:13:39;;;;;;;30.75;14.63;;;;;;;-0.03;100.00;102502.75;5221244;28;20033;-76
2022/02/28 03:16:09;;;;;;;30.38;14.82;;;;;;;-0.03;100.00;102515.59;5217160;28;20025;-77
2022/02/28 03:18:40;;;;;;;28.65;14.85;;;;;;;-0.01;100.00;102508.00;5219224;28;20033;-75
2022/02/28 03:21:10;;;;;;;37.13;15.55;;;;;;;-0.12;100.00;102516.13;5221140;28;20048;-76
2022/02/28 03:23:40;;;;;;;30.52;14.68;;;;;;;-0.25;100.00;102513.88;5216776;28;20048;-77
2022/02/28 03:26:10;;;;;;;35.10;15.18;;;;;;;-0.13;100.00;102509.22;5218453;28;20057;-76
2022/02/28 03:28:41;;;;;;;33.55;15.88;;;;;;;-0.08;100.00;102504.28;5219023;28;20280;-77
2022/02/28 03:31:11;;;;;;;37.30;16.75;;;;;;;-0.09;100.00;102511.09;5214145;28;20033;-75
2022/02/28 03:33:41;;;;;;;33.20;15.77;;;;;;;-0.08;100.00;102506.84;5215225;28;20059;-76
2022/02/28 03:36:12;;;;;;;36.85;16.65;;;;;;;-0.08;100.00;102501.72;5219680;28;20108;-77
2022/02/28 03:38:42;;;;;;;36.55;16.63;;;;;;;0.00;100.00;102511.44;5218362;28;20109;-77
2022/02/28 03:41:12;;;;;;;33.58;16.70;;;;;;;-0.05;100.00;102522.38;5217415;28;20423;-75
2022/02/28 03:43:42;;;;;;;35.85;16.40;;;;;;;-0.01;100.00;102508.00;5218615;28;20089;-77
2022/02/28 03:46:13;;;;;;;34.22;15.88;;;;;;;-0.17;100.00;102509.94;5213684;28;20355;-75
2022/02/28 03:48:43;;;;;;;35.30;16.33;;;;;;;-0.16;100.00;102510.78;5216408;28;20074;-77
2022/02/28 03:51:13;;;;;;;39.00;17.60;;;;;;;-0.19;100.00;102513.25;5217561;28;20037;-75
2022/02/28 03:53:44;;;;;;;43.78;17.88;;;;;;;-0.15;100.00;102504.84;5216381;28;20032;-75
2022/02/28 03:56:14;;;;;;;37.60;17.60;;;;;;;-0.28;100.00;102508.63;5214930;28;20097;-77
2022/02/28 03:58:45;;;;;;;36.80;17.05;;;;;;;-0.25;100.00;102505.31;5214484;28;20505;-75
2022/02/28 04:01:15;;;;;;;41.28;18.55;;;;;;;-0.29;100.00;102506.00;5211071;28;20029;-77
2022/02/28 04:03:46;;;;;;;43.42;18.63;;;;;;;-0.30;100.00;102499.09;5214336;28;20033;-77
2022/02/28 04:06:16;;;;;;;40.03;18.83;;;;;;;-0.25;100.00;102502.75;5218286;28;20048;-76
2022/02/28 04:08:46;;;;;;;39.85;18.42;;;;;;;-0.29;100.00;102501.75;5216073;28;20033;-75
2022/02/28 04:11:17;;;;;;;43.92;19.50;;;;;;;-0.32;100.00;102505.88;5217464;28;20440;-76
2022/02/28 04:13:47;;;;;;;44.63;19.27;;;;;;;-0.30;100.00;102507.72;5218352;28;20033;-76
2022/02/28 04:16:18;;;;;;;38.65;19.00;;;;;;;-0.34;100.00;102510.09;5215441;28;20056;-75
2022/02/28 04:18:48;;;;;;;41.28;19.23;;;;;;;-0.27;100.00;102509.50;5218001;28;20268;-76
2022/02/28 04:21:18;;;;;;;42.97;19.27;;;;;;;-0.34;100.00;102507.53;5221521;28;20061;-76
2022/02/28 04:23:51;;;;;;;50.20;20.50;;;;;;;-0.38;100.00;102514.22;5220170;28;20029;-75
2022/02/28 04:26:21;;;;;;;43.95;19.63;;;;;;;-0.35;100.00;102509.19;5221862;28;20021;-76
2022/02/28 04:28:51;;;;;;;46.65;20.83;;;;;;;-0.45;100.00;102499.41;5220812;28;20029;-76
2022/02/28 04:31:22;;;;;;;51.03;22.13;;;;;;;-0.45;100.00;102506.22;5215432;28;20053;-76
2022/02/28 04:33:52;;;;;;;47.88;20.73;;;;;;;-0.45;100.00;102504.53;5216950;28;20075;-75
2022/02/28 04:36:22;;;;;;;49.90;22.38;;;;;;;-0.47;100.00;102503.59;5220407;28;20224;-77
2022/02/28 04:38:53;;;;;;;57.88;23.20;;;;;;;-0.57;100.00;102513.44;5224441;28;20109;-77
2022/02/28 04:41:24;;;;;;;64.13;23.65;;;;;;;-0.72;100.00;102511.13;5224203;28;20030;-77
2022/02/28 04:43:54;;;;;;;62.35;25.95;;;;;;;-0.76;100.00;102505.84;5219687;28;20041;-76
2022/02/28 04:46:24;;;;;;;63.97;23.95;;;;;;;-0.80;100.00;102509.94;5211652;28;20030;-77
2022/02/28 04:48:55;;;;;;;60.10;24.63;;;;;;;-0.81;100.00;102517.56;5215450;28;20017;-77
2022/02/28 04:51:25;;;;;;;63.03;23.88;;;;;;;-0.81;100.00;102518.47;5215434;28;20036;-77
2022/02/28 04:53:55;;;;;;;59.17;24.50;;;;;;;-0.79;100.00;102515.94;5218800;28;20028;-76
2022/02/28 04:56:26;;;;;;;62.25;24.90;;;;;;;-0.79;100.00;102521.06;5213487;28;20033;-77
2022/02/28 04:58:56;;;;;;;65.78;25.50;;;;;;;-0.68;100.00;102519.84;5216602;28;20025;-76
2022/02/28 05:01:26;;;;;;;62.75;26.13;;;;;;;-0.75;100.00;102521.28;5211584;28;20514;-75
2022/02/28 05:03:56;;;;;;;64.43;24.25;;;;;;;-0.88;100.00;102530.97;5213515;28;20081;-76
2022/02/28 05:06:27;;;;;;;63.72;24.25;;;;;;;-0.77;100.00;102522.91;5218342;28;20032;-76
2022/02/28 05:08:57;;;;;;;68.53;25.90;;;;;;;-0.72;100.00;102529.09;5217093;28;20029;-77
2022/02/28 05:11:27;;;;;;;53.95;22.30;;;;;;;-0.73;100.00;102527.34;5214024;28;20032;-76
2022/02/28 05:13:59;;;;;;;54.67;22.23;;;;;;;-0.76;100.00;102539.19;5217084;28;20029;-77
2022/02/28 05:16:29;;;;;;;49.83;21.02;;;;;;;-0.88;100.00;102536.97;5209223;28;20302;-77
2022/02/28 05:18:59;;;;;;;53.03;21.13;;;;;;;-0.95;100.00;102534.09;5213525;28;20029;-76
2022/02/28 05:21:30;;;;;;;51.42;20.90;;;;;;;-0.95;100.00;102534.09;5216114;28;20032;-77
2022/02/28 05:24:01;;;;;;;60.10;21.35;;;;;;;-0.97;100.00;102530.59;5212812;28;20057;-77
2022/02/28 05:26:31;;;;;;;51.03;21.15;;;;;;;-0.97;100.00;102540.84;5215152;28;20537;-76
2022/02/28 05:29:02;;;;;;;52.60;22.15;;;;;;;-1.01;100.00;102538.97;5214559;28;20033;-76
2022/02/28 05:31:32;;;;;;;49.58;20.65;;;;;;;-0.95;100.00;102539.22;5210698;28;20033;-77
2022/02/28 05:34:03;;;;;;;56.60;22.02;;;;;;;-0.87;100.00;102532.72;5213069;28;20662;-77
2022/02/28 05:36:33;;;;;;;54.60;21.65;;;;;;;-0.90;100.00;102537.75;5216275;28;20032;-76
2022/02/28 05:39:03;;;;;;;55.20;21.52;;;;;;;-0.89;100.00;102540.34;5214989;28;20049;-76
2022/02/28 05:41:34;;;;;;;47.97;20.08;;;;;;;-0.93;100.00;102535.91;5212497;28;20127;-75
2022/02/28 05:44:04;;;;;;;56.72;22.55;;;;;;;-1.04;100.00;102536.28;5216518;28;20032;-76
2022/02/28 05:46:35;;;;;;;53.65;20.98;;;;;;;-1.05;100.00;102539.66;5210905;28;20032;-77
2022/02/28 05:49:05;;;;;;;52.30;21.17;;;;;;;-1.05;100.00;102544.78;5213463;28;20108;-77
2022/02/28 05:51:36;;;;;;;60.28;22.48;;;;;;;-1.06;100.00;102543.91;5215882;28;20055;-77
2022/02/28 05:54:06;;;;;;;54.90;22.05;;;;;;;-1.07;100.00;102548.97;5212986;28;20033;-75
2022/02/28 05:56:36;;;;;;;61.03;22.83;;;;;;;-1.11;100.00;102547.97;5214376;28;20052;-77
2022/02/28 05:59:06;;;;;;;49.75;20.88;;;;;;;-1.09;100.00;102551.47;5214706;28;20035;-77
2022/02/28 06:01:37;;;;;;;61.65;23.27;;;;;;;-1.00;100.00;102556.13;5211291;28;20463;-77
2022/02/28 06:04:07;;;;;;;61.95;24.20;;;;;;;-0.96;100.00;102563.13;5216095;28;20525;-76
2022/02/28 06:06:38;;;;;;;62.55;23.58;;;;;;;-0.95;100.00;102570.00;5217871;28;20131;-76
2022/02/28 06:09:08;;;;;;;58.45;23.25;;;;;;;-0.91;100.00;102566.78;5215324;28;20056;-74
2022/02/28 06:11:38;;;;;;;63.30;22.95;;;;;;;-0.98;100.00;102564.75;5216978;28;20040;-77
2022/02/28 06:14:09;;;;;;;61.83;22.92;;;;;;;-0.90;100.00;102569.38;5217674;28;20471;-77
2022/02/28 06:16:39;;;;;;;67.45;24.83;;;;;;;-0.95;100.00;102570.00;5214433;28;20447;-77
2022/02/28 06:19:09;;;;;;;59.92;22.85;;;;;;;-0.92;100.00;102575.28;5213274;28;20025;-77
2022/02/28 06:21:40;;;;;;;69.25;22.83;;;;;;;-1.06;100.00;102584.09;5218398;28;20029;-75
2022/02/28 06:24:10;;;;;;;64.15;23.13;;;;;;;-1.00;100.00;102581.78;5215061;28;20029;-77
2022/02/28 06:26:40;;;;;;;66.40;23.90;;;;;;;-1.06;100.00;102587.50;5223423;28;20049;-77
2022/02/28 06:29:11;;;;;;;62.78;22.52;;;;;;;-1.12;100.00;102599.19;5217257;28;20021;-77
2022/02/28 06:31:43;;;;;;;68.63;24.83;;;;;;;-1.11;100.00;102600.94;5212688;28;20033;-77
2022/02/28 06:34:14;;;;;;;62.22;23.08;;;;;;;-1.07;100.00;102595.16;5214350;28;20033;-76
2022/02/28 06:36:44;;;;;;;59.90;22.20;;;;;;;-1.04;100.00;102595.28;5214198;28;20029;-74
2022/02/28 06:39:14;;;;;;;56.10;21.90;;;;;;;-1.17;100.00;102593.88;5207249;28;20049;-77
2022/02/28 06:41:45;;;;;;;61.17;23.05;;;;;;;-1.09;100.00;102594.22;5213120;28;20028;-77
2022/02/28 06:44:15;;;;;;;60.58;22.20;;;;;;;-1.10;100.00;102589.91;5215758;28;20683;-77
2022/02/28 06:46:45;;;;;;;58.53;20.63;;;;;;;-1.14;100.00;102604.28;5211225;28;20032;-76
2022/02/28 06:49:16;;;;;;;59.10;20.13;;;;;;;-1.21;100.00;102597.09;5212628;28;20398;-75
2022/02/28 06:51:46;;;;;;;60.65;22.98;;;;;;;-1.13;100.00;102600.00;5213354;28;20040;-76
2022/02/28 06:54:16;;;;;;;66.53;22.55;;;;;;;-1.20;100.00;102608.25;5215072;28;20084;-76
2022/02/28 06:56:47;;;;;;;62.63;20.30;;;;;;;-1.18;100.00;102604.06;5212423;28;20029;-77
2022/02/28 06:59:17;;;;;;;56.42;20.85;;;;;;;-1.25;100.00;102604.63;5208883;28;20029;-75
2022/02/28 07:01:47;;;;;;;63.20;22.08;;;;;;;-1.15;100.00;102604.19;5211154;28;20021;-76
2022/02/28 07:04:17;;;;;;;66.57;21.85;;;;;;;-1.01;100.00;102613.38;5209778;28;20037;-75
2022/02/28 07:06:48;;;;;;;69.57;20.80;;;;;;;-1.04;100.00;102605.53;5214223;28;20108;-75
2022/02/28 07:09:18;;;;;;;72.07;21.67;;;;;;;-0.91;100.00;102603.56;5217256;28;20024;-75
2022/02/28 07:11:48;;;;;;;64.78;23.10;;;;;;;-0.97;100.00;102603.31;5213656;28;20151;-76
2022/02/28 07:14:19;;;;;;;70.65;22.92;;;;;;;-1.10;100.00;102613.00;5217862;28;20412;-75
2022/02/28 07:16:49;;;;;;;62.70;19.35;;;;;;;-1.18;100.00;102606.63;5211855;28;20085;-75
2022/02/28 07:19:19;;;;;;;72.10;22.08;;;;;;;-1.24;100.00;102620.06;5212609;28;20028;-77
2022/02/28 07:21:50;;;;;;;65.53;21.98;;;;;;;-1.16;100.00;102613.59;5215293;28;20021;-77
2022/02/28 07:24:20;;;;;;;73.35;23.05;;;;;;;-1.04;100.00;102611.53;5216903;28;20040;-77
2022/02/28 07:26:50;;;;;;;73.28;23.10;;;;;;;-1.05;100.00;102624.31;5213980;28;20026;-77
2022/02/28 07:29:21;;;;;;;68.47;22.02;;;;;;;-0.91;100.00;102620.66;5211926;28;20025;-75
2022/02/28 07:31:51;;;;;;;76.93;22.98;;;;;;;-1.03;100.00;102627.81;5210996;28;20052;-76
2022/02/28 07:34:21;;;;;;;73.53;22.13;;;;;;;-1.06;100.00;102630.25;5216330;28;20032;-75
2022/02/28 07:36:52;;;;;;;77.72;22.60;;;;;;;-1.10;100.00;102628.38;5216515;28;20017;-76
2022/02/28 07:39:22;;;;;;;82.93;24.48;;;;;;;-1.11;100.00;102624.03;5216886;28;20059;-76
2022/02/28 07:41:53;;;;;;;76.55;22.52;;;;;;;-0.98;100.00;102623.75;5217487;28;20082;-75
2022/02/28 07:44:23;;;;;;;72.32;22.33;;;;;;;-1.17;100.00;102618.63;5219746;28;20036;-75
2022/02/28 07:46:53;;;;;;;77.07;22.30;;;;;;;-1.12;100.00;102627.41;5215040;28;20028;-76
2022/02/28 07:49:24;;;;;;;73.53;21.30;;;;;;;-1.23;100.00;102626.06;5215006;28;20417;-74
2022/02/28 07:51:54;;;;;;;72.07;23.00;;;;;;;-1.16;100.00;102621.28;5219854;28;20029;-76
2022/02/28 07:54:24;;;;;;;77.63;21.75;;;;;;;-1.19;100.00;102620.25;5211458;28;20037;-76
2022/02/28 07:56:55;;;;;;;83.63;24.00;;;;;;;-0.93;100.00;102630.00;5219408;28;20051;-77
2022/02/28 07:59:25;;;;;;;72.57;22.95;;;;;;;-0.98;100.00;102621.19;5212755;28;20075;-77
2022/02/28 08:01:55;;;;;;;81.82;23.95;;;;;;;-0.96;100.00;102622.13;5215045;28;20383;-77
2022/02/28 08:04:25;;;;;;;82.00;24.15;;;;;;;-0.79;100.00;102623.72;5220920;28;20084;-77
2022/02/28 08:06:56;;;;;;;74.88;24.23;;;;;;;-0.73;100.00;102614.59;5217316;28;20277;-75
2022/02/28 08:09:26;;;;;;;73.13;22.48;;;;;;;-0.68;100.00;102620.84;5218020;28;20037;-74
2022/02/28 08:11:58;;;;;;;81.88;24.85;;;;;;;-0.67;100.00;102620.03;5216188;28;20053;-77
2022/02/28 08:14:28;;;;;;;81.95;25.17;;;;;;;-0.61;100.00;102624.50;5219604;28;20491;-75
2022/02/28 08:16:59;;;;;;;72.38;22.77;;;;;;;-0.52;100.00;102622.34;5217369;28;20017;-76
2022/02/28 08:19:29;;;;;;;91.32;26.08;;;;;;;-0.46;100.00;102625.16;5218856;28;20029;-75
2022/02/28 08:21:59;;;;;;;85.82;24.65;;;;;;;-0.35;100.00;102623.91;5221392;28;20029;-75
2022/02/28 08:24:29;;;;;;;80.47;25.13;;;;;;;-0.19;100.00;102626.28;5219340;28;20029;-75
2022/02/28 08:27:00;;;;;;;82.82;24.52;;;;;;;-0.22;100.00;102624.47;5220094;28;20057;-76
2022/02/28 08:29:30;;;;;;;88.28;27.00;;;;;;;0.17;100.00;102626.91;5219984;28;20071;-77
2022/02/28 08:32:00;;;;;;;98.10;27.05;;;;;;;0.22;100.00;102630.53;5217217;28;20339;-76
2022/02/28 08:34:30;;;;;;;81.97;25.77;;;;;;;0.13;100.00;102622.47;5222082;28;20060;-75
2022/02/28 08:37:01;;;;;;;76.38;24.77;;;;;;;0.09;100.00;102636.03;5218186;28;20032;-76
2022/02/28 08:39:31;;;;;;;70.82;24.10;;;;;;;0.05;100.00;102638.41;5217306;28;20306;-77
2022/02/28 08:42:01;;;;;;;75.78;24.20;;;;;;;-0.25;100.00;102644.03;5211410;28;20025;-76
2022/02/28 08:44:32;;;;;;;69.93;23.30;;;;;;;-0.33;100.00;102641.16;5207968;28;20033;-76
2022/02/28 08:47:02;;;;;;;77.22;24.95;;;;;;;-0.24;100.00;102649.22;5212170;28;20029;-76
2022/02/28 08:49:33;;;;;;;75.20;23.77;;;;;;;-0.15;100.00;102648.72;5211622;28;20486;-75
2022/02/28 08:52:04;;;;;;;77.47;24.73;;;;;;;-0.24;100.00;102648.34;5211541;28;20025;-75
2022/02/28 08:54:35;;;;;;;73.18;23.85;;;;;;;-0.16;100.00;102647.84;5207620;28;20566;-75
2022/02/28 08:57:05;;;;;;;69.38;23.77;;;;;;;-0.11;100.00;102650.56;5209231;28;20113;-74
2022/02/28 08:59:36;;;;;;;71.97;23.70;;;;;;;-0.11;100.00;102640.31;5214423;28;20406;-76
2022/02/28 09:02:06;;;;;;;61.50;22.13;;;;;;;-0.02;100.00;102645.00;5214510;28;20024;-76
2022/02/28 09:04:37;;;;;;;71.53;22.48;;;;;;;-0.01;100.00;102644.19;5218449;28;20036;-76
2022/02/28 09:07:07;;;;;;;60.70;22.40;;;;;;;0.03;100.00;102646.06;5214351;28;20107;-77
2022/02/28 09:09:38;;;;;;;64.00;21.17;;;;;;;-0.06;100.00;102654.22;5214585;28;20032;-75
2022/02/28 09:12:09;;;;;;;69.50;22.80;;;;;;;0.19;100.00;102663.84;5214725;28;20382;-75
2022/02/28 09:14:39;;;;;;;68.35;23.38;;;;;;;0.20;100.00;102654.44;5212899;28;20025;-76
2022/02/28 09:17:09;;;;;;;64.57;22.40;;;;;;;-0.02;100.00;102664.66;5212284;28;20552;-77
2022/02/28 09:19:39;;;;;;;67.63;22.95;;;;;;;0.11;100.00;102659.22;5212827;28;20028;-75
2022/02/28 09:22:10;;;;;;;65.90;23.73;;;;;;;0.24;100.00;102658.88;5212574;28;20116;-76
2022/02/28 09:24:40;;;;;;;62.63;21.08;;;;;;;0.22;100.00;102647.66;5211359;28;20429;-76
2022/02/28 09:27:10;;;;;;;61.30;21.20;;;;;;;0.62;100.00;102651.81;5212682;28;20033;-77
2022/02/28 09:29:41;;;;;;;56.53;21.52;;;;;;;0.59;100.00;102648.25;5210321;28;20399;-76
2022/02/28 09:32:12;;;;;;;66.50;22.33;;;;;;;0.63;100.00;102647.53;5209275;28;20139;-76
2022/02/28 09:34:42;;;;;;;61.75;22.25;;;;;;;0.88;100.00;102642.50;5212522;28;20453;-76
2022/02/28 09:37:12;;;;;;;61.72;22.45;;;;;;;0.78;100.00;102638.72;5214284;28;20379;-75
2022/02/28 09:39:43;;;;;;;58.40;22.83;;;;;;;0.68;100.00;102641.75;5212751;28;20087;-74
2022/02/28 09:42:15;;;;;;;56.40;21.40;;;;;;;0.63;100.00;102651.00;5213676;28;20021;-76
2022/02/28 09:44:46;;;;;;;68.72;24.23;;;;;;;0.78;100.00;102637.81;5210124;28;20202;-73
2022/02/28 09:47:18;;;;;;;59.92;22.48;;;;;;;0.75;100.00;102642.84;5209785;28;20152;-76
2022/02/28 09:49:52;;;;;;;57.10;21.98;;;;;;;0.83;100.00;102639.75;5262267;22;20040;-78
2022/02/28 09:52:23;;;;;;;63.60;22.17;;;;;;;0.68;100.00;102651.16;5265433;28;20032;-78
2022/02/28 09:54:53;;;;;;;64.60;23.48;;;;;;;0.79;100.00;102648.19;5248044;28;20373;-77
2022/02/28 09:57:24;;;;;;;68.47;22.40;;;;;;;0.73;100.00;102645.34;5260222;28;20024;-77
2022/02/28 09:59:55;;;;;;;68.40;23.92;;;;;;;0.62;100.00;102656.97;5257668;28;20437;-77
2022/02/28 10:02:27;;;;;;;67.45;24.17;;;;;;;0.65;100.00;102658.75;5230103;28;20039;-77
2022/02/28 10:04:57;;;;;;;67.63;23.00;;;;;;;0.64;100.00;102650.19;5226335;28;20028;-78
2022/02/28 10:07:56;;;;;;;68.90;23.77;;;;;;;0.70;100.00;102657.25;5227224;28;20040;-78
2022/02/28 10:10:28;;;;;;;55.55;20.95;;;;;;;0.71;100.00;102661.59;5245802;28;20024;-77
2022/02/28 10:12:58;;;;;;;60.90;22.42;;;;;;;0.57;100.00;102658.47;5237412;28;20115;-77
2022/02/28 10:15:28;;;;;;;65.03;23.65;;;;;;;0.67;100.00;102664.84;5234510;28;20111;-77
2022/02/28 10:18:06;;;;;;;67.47;23.55;;;;;;;0.67;100.00;102669.97;5224274;28;20036;-77
2022/02/28 10:20:38;;;;;;;71.05;23.45;;;;;;;0.63;100.00;102669.00;5235405;28;20370;-78
2022/02/28 10:23:12;;;;;;;62.88;22.75;;;;;;;0.58;100.00;102667.06;5241117;28;20532;-78
2022/02/28 10:25:46;;;;;;;60.78;21.92;;;;;;;0.75;100.00;102661.72;5241384;28;20032;-76
2022/02/28 10:28:24;;;;;;;57.63;21.77;;;;;;;0.84;100.00;102677.53;5233879;28;20120;-77
2022/02/28 10:30:56;;;;;;;62.10;21.70;;;;;;;1.02;100.00;102669.59;5230471;28;20044;-77
2022/02/28 10:33:39;;;;;;;56.72;22.23;;;;;;;0.95;100.00;102668.50;5230607;28;20025;-77
2022/02/28 10:36:17;;;;;;;57.25;22.40;;;;;;;1.24;100.00;102670.41;5233555;28;20575;-76
2022/02/28 10:38:53;;;;;;;57.65;20.73;;;;;;;1.27;100.00;102678.22;5226689;28;20032;-76
2022/02/28 10:41:26;;;;;;;51.25;20.85;;;;;;;1.12;100.00;102664.84;5227221;28;20045;-76
2022/02/28 10:43:59;;;;;;;57.03;22.45;;;;;;;1.30;100.00;102673.22;5233439;28;20381;-76
2022/02/28 10:46:33;;;;;;;58.80;23.13;;;;;;;1.34;100.00;102676.75;5227207;28;20103;-77
2022/02/28 10:49:16;;;;;;;56.15;22.23;;;;;;;1.44;100.00;102671.13;5230869;28;20065;-78
2022/02/28 10:51:54;;;;;;;55.15;20.70;;;;;;;1.66;100.00;102663.28;5224412;28;20028;-77
2022/02/28 10:54:34;;;;;;;55.40;21.73;;;;;;;1.65;100.00;102665.00;5232755;28;20115;-77
2022/02/28 10:57:09;;;;;;;55.03;20.92;;;;;;;1.80;100.00;102663.81;5241885;28;20069;-77
2022/02/28 10:59:55;;;;;;;54.30;20.48;;;;;;;1.80;100.00;102658.66;5237585;28;20493;-77
2022/02/28 11:02:26;;;;;;;;;;;;;;;1.97;100.00;102654.91;5224794;28;20029;-77
2022/02/28 11:05:11;;;;;;;53.25;19.83;;;;;;;1.95;100.00;102658.25;5223296;28;20413;-77
2022/02/28 11:07:44;;;;;;;51.97;20.10;;;;;;;1.84;100.00;102659.63;5241158;28;20051;-77
2022/02/28 11:10:16;;;;;;;54.63;21.52;;;;;;;1.90;100.00;102663.28;5239377;28;20314;-77
2022/02/28 11:12:48;;;;;;;52.85;19.45;;;;;;;2.16;100.00;102653.81;5237387;28;20029;-77
2022/02/28 11:15:21;;;;;;;53.72;21.63;;;;;;;2.08;100.00;102661.31;5236971;28;20552;-77
2022/02/28 11:17:52;;;;;;;48.38;19.58;;;;;;;1.92;100.00;102668.47;5232022;28;20021;-77
2022/02/28 11:20:22;;;;;;;52.10;21.55;;;;;;;2.19;100.00;102659.91;5226767;28;20021;-77
2022/02/28 11:22:52;;;;;;;57.58;22.95;;;;;;;2.35;100.00;102661.28;5226954;28;20055;-77